createdAt,value
2019-01-18T00:02:05.603Z,4.47
2019-01-18T00:04:33.870Z,8.20
2019-01-18T00:07:02.107Z,4.72
2019-01-18T00:09:30.370Z,9.10
2019-01-18T00:11:58.612Z,9.45
2019-01-18T00:14:26.874Z,7.62
2019-01-18T00:16:55.117Z,10.18
2019-01-18T00:19:23.366Z,7.35
2019-01-18T00:21:51.606Z,5.25
2019-01-18T00:24:19.833Z,7.78
2019-01-18T00:26:48.098Z,4.97
2019-01-18T00:29:16.361Z,5.53
2019-01-18T00:31:44.607Z,5.55
2019-01-18T00:34:12.833Z,5.25
2019-01-18T00:36:41.089Z,4.53
2019-01-18T00:39:09.321Z,10.58
2019-01-18T00:41:37.557Z,5.65
2019-01-18T00:44:05.825Z,3.90
2019-01-18T00:46:34.066Z,8.23
2019-01-18T00:49:02.323Z,6.15
2019-01-18T00:51:30.570Z,6.47
2019-01-18T00:53:58.828Z,5.70
2019-01-18T00:56:27.068Z,6.60
2019-01-18T00:58:55.331Z,6.90
2019-01-18T01:01:23.562Z,7.45
2019-01-18T01:03:51.789Z,4.10
2019-01-18T01:06:20.055Z,5.12
2019-01-18T01:08:48.317Z,9.58
2019-01-18T01:11:16.568Z,6.08
2019-01-18T01:13:44.819Z,3.75
2019-01-18T01:16:13.064Z,8.05
2019-01-18T01:18:41.306Z,3.90
2019-01-18T01:21:09.572Z,7.37
2019-01-18T01:23:37.804Z,10.32
2019-01-18T01:26:06.050Z,4.50
2019-01-18T01:28:34.285Z,6.60
2019-01-18T01:31:02.527Z,6.08
2019-01-18T01:33:30.769Z,5.03
2019-01-18T01:35:59.011Z,7.75
2019-01-18T01:38:27.256Z,7.08
2019-01-18T01:40:55.482Z,6.28
2019-01-18T01:43:23.753Z,8.38
2019-01-18T01:45:51.974Z,8.23
2019-01-18T01:48:20.252Z,10.45
2019-01-18T01:50:48.485Z,10.10
2019-01-18T01:53:16.738Z,8.48
2019-01-18T01:55:44.995Z,8.63
2019-01-18T01:58:13.241Z,8.53
2019-01-18T02:00:41.489Z,6.40
2019-01-18T02:03:09.730Z,7.90
2019-01-18T02:05:38.032Z,11.22
2019-01-18T02:08:06.304Z,11.40
2019-01-18T02:10:34.568Z,9.95
2019-01-18T02:13:02.797Z,10.30
2019-01-18T02:15:31.072Z,9.30
2019-01-18T02:17:59.301Z,10.20
2019-01-18T02:20:27.540Z,10.20
2019-01-18T02:22:55.818Z,4.62
2019-01-18T02:25:24.041Z,9.98
2019-01-18T02:27:52.319Z,7.05
2019-01-18T02:30:22.806Z,4.92
2019-01-18T02:32:51.049Z,7.42
2019-01-18T02:35:19.285Z,10.98
2019-01-18T02:37:47.534Z,8.38
2019-01-18T02:40:15.851Z,4.75
2019-01-18T02:42:44.095Z,8.13
2019-01-18T02:45:15.170Z,9.35
2019-01-18T02:47:43.421Z,8.05
2019-01-18T02:50:11.949Z,10.10
2019-01-18T02:52:40.216Z,13.95
2019-01-18T02:55:09.808Z,12.03
2019-01-18T02:57:38.047Z,7.40
2019-01-18T03:00:12.541Z,5.92
2019-01-18T03:02:40.872Z,5.00
2019-01-18T03:05:11.057Z,11.38
2019-01-18T03:07:39.316Z,8.13
2019-01-18T03:10:10.822Z,10.75
2019-01-18T03:12:39.073Z,4.60
2019-01-18T03:15:08.367Z,12.33
2019-01-18T03:17:36.620Z,6.47
2019-01-18T03:20:08.128Z,10.10
2019-01-18T03:22:36.401Z,6.50
2019-01-18T03:25:07.890Z,4.85
2019-01-18T03:27:36.137Z,5.67
2019-01-18T03:30:18.181Z,6.75
2019-01-18T03:32:37.628Z,6.55
2019-01-18T03:35:08.218Z,9.00
2019-01-18T03:37:36.442Z,6.78
2019-01-18T03:40:08.009Z,10.88
2019-01-18T03:42:36.252Z,8.40
2019-01-18T03:45:07.951Z,10.20
2019-01-18T03:47:36.191Z,10.25
2019-01-18T03:50:07.562Z,9.05
2019-01-18T03:52:35.820Z,8.03
2019-01-18T03:55:04.690Z,11.03
2019-01-18T03:57:32.953Z,10.30
2019-01-18T04:00:01.196Z,10.85
2019-01-18T04:02:29.448Z,12.10
2019-01-18T04:04:57.695Z,9.50
2019-01-18T04:07:25.987Z,10.23
2019-01-18T04:09:54.237Z,16.45
2019-01-18T04:12:22.558Z,9.68
2019-01-18T04:14:50.806Z,11.68
2019-01-18T04:17:19.073Z,8.33
2019-01-18T04:19:47.326Z,11.18
2019-01-18T04:22:15.581Z,11.35
2019-01-18T04:24:43.827Z,6.28
2019-01-18T04:27:13.636Z,9.65
2019-01-18T04:29:41.878Z,8.68
2019-01-18T04:32:10.110Z,15.75
2019-01-18T04:34:38.432Z,5.33
2019-01-18T04:37:06.727Z,10.13
2019-01-18T04:39:34.977Z,10.53
2019-01-18T04:42:03.220Z,7.87
2019-01-18T04:44:31.480Z,9.08
2019-01-18T04:46:59.721Z,9.75
2019-01-18T04:49:27.970Z,5.83
2019-01-18T04:51:56.208Z,9.18
2019-01-18T04:54:24.476Z,6.87
2019-01-18T04:56:52.704Z,10.08
2019-01-18T04:59:20.956Z,9.25
2019-01-18T05:01:49.227Z,10.08
2019-01-18T05:04:17.468Z,7.95
2019-01-18T05:06:45.707Z,10.98
2019-01-18T05:09:14.023Z,9.95
2019-01-18T05:11:42.257Z,10.60
2019-01-18T05:14:10.486Z,9.10
2019-01-18T05:16:38.749Z,7.08
2019-01-18T05:19:06.982Z,7.40
2019-01-18T05:21:35.231Z,10.13
2019-01-18T05:24:03.490Z,6.90
2019-01-18T05:26:31.737Z,10.50
2019-01-18T05:28:59.996Z,10.63
2019-01-18T05:31:28.254Z,10.40
2019-01-18T05:33:56.502Z,8.75
2019-01-18T05:36:24.737Z,9.78
2019-01-18T05:38:52.990Z,13.43
2019-01-18T05:41:21.222Z,7.80
2019-01-18T05:43:49.465Z,6.58
2019-01-18T05:46:17.718Z,16.62
2019-01-18T05:48:45.964Z,11.88
2019-01-18T05:51:14.313Z,8.53
2019-01-18T05:53:42.551Z,6.67
2019-01-18T05:56:10.828Z,8.13
2019-01-18T05:58:39.056Z,6.28
2019-01-18T06:01:07.476Z,7.80
2019-01-18T06:03:35.740Z,10.45
2019-01-18T06:06:04.169Z,13.35
2019-01-18T06:08:32.406Z,9.95
2019-01-18T06:11:00.643Z,8.38
2019-01-18T06:13:28.908Z,12.58
2019-01-18T06:15:57.152Z,18.35
2019-01-18T06:18:25.424Z,9.68
2019-01-18T06:20:53.680Z,12.53
2019-01-18T06:23:21.937Z,9.93
2019-01-18T06:25:50.184Z,11.85
2019-01-18T06:28:18.443Z,9.30
2019-01-18T06:30:46.675Z,9.28
2019-01-18T06:33:14.943Z,11.93
2019-01-18T06:35:43.206Z,23.10
2019-01-18T06:38:11.456Z,13.03
2019-01-18T06:40:39.708Z,11.75
2019-01-18T06:43:08.055Z,11.78
2019-01-18T06:45:36.309Z,11.53
2019-01-18T06:48:04.629Z,13.30
2019-01-18T06:50:32.874Z,11.95
2019-01-18T06:53:01.109Z,46.77
2019-01-18T06:55:29.357Z,38.17
2019-01-18T06:57:57.594Z,49.65
2019-01-18T07:00:28.093Z,50.60
2019-01-18T07:02:56.364Z,100.62
2019-01-18T07:05:24.609Z,42.35
2019-01-18T07:07:52.868Z,19.57
2019-01-18T07:10:22.866Z,123.15
2019-01-18T07:12:51.095Z,22.22
2019-01-18T07:15:20.574Z,23.22
2019-01-18T07:17:48.825Z,30.35
2019-01-18T07:20:19.112Z,44.20
2019-01-18T07:22:47.370Z,71.15
2019-01-18T07:25:23.661Z,95.28
2019-01-18T07:27:51.929Z,51.18
2019-01-18T07:30:22.501Z,43.50
2019-01-18T07:32:50.742Z,32.13
2019-01-18T07:35:19.007Z,23.47
2019-01-18T07:37:47.248Z,27.95
2019-01-18T07:40:15.517Z,22.15
2019-01-18T07:42:43.801Z,19.00
2019-01-18T07:45:17.557Z,16.50
2019-01-18T07:47:45.813Z,16.55
2019-01-18T07:50:19.944Z,15.32
2019-01-18T07:52:44.186Z,11.12
2019-01-18T07:55:12.421Z,24.12
2019-01-18T07:57:40.684Z,16.85
2019-01-18T08:00:20.717Z,10.32
2019-01-18T08:02:48.953Z,21.40
2019-01-18T08:05:17.269Z,21.20
2019-01-18T08:07:45.519Z,16.23
2019-01-18T08:10:21.618Z,18.12
2019-01-18T08:15:19.470Z,19.15
2019-01-18T08:17:47.721Z,13.13
2019-01-18T08:20:18.715Z,17.52
2019-01-18T08:22:46.976Z,18.23
2019-01-18T08:25:15.859Z,21.02
2019-01-18T08:27:44.122Z,14.58
2019-01-18T08:30:15.363Z,24.12
2019-01-18T08:32:43.641Z,13.95
2019-01-18T08:35:14.030Z,17.55
2019-01-18T08:37:42.337Z,20.12
2019-01-18T08:40:13.260Z,15.32
2019-01-18T08:42:41.504Z,16.05
2019-01-18T08:45:15.716Z,10.88
2019-01-18T08:47:43.949Z,19.23
2019-01-18T08:50:17.352Z,14.98
2019-01-18T08:52:45.601Z,17.40
2019-01-18T08:55:13.855Z,16.02
2019-01-18T08:57:42.100Z,16.73
2019-01-18T09:00:24.997Z,15.85
2019-01-18T09:02:53.275Z,21.68
2019-01-18T09:05:23.864Z,17.80
2019-01-18T09:07:52.107Z,16.95
2019-01-18T09:10:22.995Z,13.43
2019-01-18T09:12:51.277Z,14.50
2019-01-18T09:15:19.528Z,17.60
2019-01-18T09:17:47.776Z,14.65
2019-01-18T09:20:21.674Z,20.95
2019-01-18T09:22:50.000Z,24.23
2019-01-18T09:25:18.521Z,18.23
2019-01-18T09:27:46.947Z,18.82
2019-01-18T09:30:20.505Z,20.37
2019-01-18T09:32:48.990Z,18.23
2019-01-18T09:35:19.489Z,22.77
2019-01-18T09:37:47.728Z,20.92
2019-01-18T09:40:21.922Z,16.00
2019-01-18T09:42:50.194Z,16.30
2019-01-18T09:45:18.447Z,21.07
2019-01-18T09:47:46.682Z,19.92
2019-01-18T09:50:19.811Z,18.67
2019-01-18T09:52:48.137Z,21.50
2019-01-18T09:55:16.374Z,15.35
2019-01-18T09:57:44.630Z,14.50
2019-01-18T10:00:18.537Z,19.80
2019-01-18T10:02:46.857Z,19.45
2019-01-18T10:05:15.116Z,26.68
2019-01-18T10:07:43.352Z,20.68
2019-01-18T10:10:14.304Z,24.20
2019-01-18T10:12:42.598Z,18.52
2019-01-18T10:15:14.174Z,17.95
2019-01-18T10:17:42.409Z,17.80
2019-01-18T10:20:13.653Z,19.05
2019-01-18T10:22:42.421Z,20.45
2019-01-18T10:25:12.897Z,15.13
2019-01-18T10:27:41.159Z,17.10
2019-01-18T10:30:15.591Z,18.67
2019-01-18T10:32:43.872Z,17.95
2019-01-18T10:35:12.177Z,14.83
2019-01-18T10:37:40.547Z,12.20
2019-01-18T10:40:10.865Z,15.20
2019-01-18T10:42:39.310Z,17.12
2019-01-18T10:45:10.650Z,17.37
2019-01-18T10:47:39.021Z,18.80
2019-01-18T10:50:10.594Z,11.15
2019-01-18T10:52:38.968Z,12.40
2019-01-18T10:55:09.413Z,13.22
2019-01-18T10:57:37.704Z,15.40
2019-01-18T11:00:09.486Z,13.32
2019-01-18T11:02:37.799Z,12.50
2019-01-18T11:05:08.980Z,11.68
2019-01-18T11:07:37.452Z,9.23
2019-01-18T11:10:09.064Z,13.22
2019-01-18T11:12:37.509Z,20.57
2019-01-18T11:15:11.620Z,14.93
2019-01-18T11:17:40.191Z,16.05
2019-01-18T11:20:17.731Z,9.58
2019-01-18T11:22:46.108Z,17.87
2019-01-18T11:25:14.550Z,13.28
2019-01-18T11:27:42.969Z,12.85
2019-01-18T11:30:15.759Z,10.80
2019-01-18T11:32:44.031Z,16.48
2019-01-18T11:35:12.257Z,13.08
2019-01-18T11:37:40.521Z,16.25
2019-01-18T11:40:12.165Z,18.95
2019-01-18T11:42:40.410Z,13.03
2019-01-18T11:45:10.615Z,10.85
2019-01-18T11:47:38.841Z,10.78
2019-01-18T11:50:13.397Z,11.90
2019-01-18T11:52:41.732Z,27.35
2019-01-18T11:55:10.086Z,17.07
2019-01-18T11:57:38.517Z,11.75
2019-01-18T12:00:10.274Z,14.03
2019-01-18T12:02:38.646Z,15.88
2019-01-18T12:05:07.017Z,16.37
2019-01-18T12:07:35.272Z,15.13
2019-01-18T12:10:05.202Z,9.33
2019-01-18T12:12:33.443Z,10.78
2019-01-18T12:15:01.851Z,9.68
2019-01-18T12:17:30.119Z,11.40
2019-01-18T12:19:58.338Z,11.30
2019-01-18T12:22:26.590Z,14.20
2019-01-18T12:24:55.022Z,9.13
2019-01-18T12:27:23.302Z,14.78
2019-01-18T12:29:51.548Z,11.40
2019-01-18T12:32:19.802Z,15.45
2019-01-18T12:34:48.034Z,9.10
2019-01-18T12:37:16.291Z,8.98
2019-01-18T12:39:44.517Z,12.18
2019-01-18T12:42:12.774Z,11.68
2019-01-18T12:44:41.052Z,13.62
2019-01-18T12:47:09.286Z,10.40
2019-01-18T12:49:37.521Z,10.38
2019-01-18T12:52:05.778Z,11.83
2019-01-18T12:54:34.043Z,10.80
2019-01-18T12:57:02.287Z,8.68
2019-01-18T12:59:49.962Z,15.98
2019-01-18T13:02:18.209Z,9.93
2019-01-18T13:04:46.475Z,8.60
2019-01-18T13:07:14.702Z,14.43
2019-01-18T13:09:42.952Z,11.63
2019-01-18T13:12:11.203Z,18.32
2019-01-18T13:14:39.469Z,14.07
2019-01-18T13:17:07.790Z,17.15
2019-01-18T13:19:36.074Z,20.32
2019-01-18T13:22:04.320Z,17.32
2019-01-18T13:24:32.545Z,13.45
2019-01-18T13:27:00.898Z,13.85
2019-01-18T13:29:29.208Z,14.58
2019-01-18T13:31:57.449Z,15.95
2019-01-18T13:34:25.694Z,20.82
2019-01-18T13:36:53.951Z,18.70
2019-01-18T13:39:22.194Z,17.27
2019-01-18T13:41:50.434Z,14.98
2019-01-18T13:44:18.687Z,14.05
2019-01-18T13:46:46.939Z,16.23
2019-01-18T13:49:15.197Z,16.02
2019-01-18T13:51:46.232Z,17.62
2019-01-18T13:54:13.411Z,14.23
2019-01-18T13:56:41.674Z,15.35
2019-01-18T13:59:09.932Z,13.72
2019-01-18T14:01:38.173Z,15.63
2019-01-18T14:04:06.497Z,13.85
2019-01-18T14:06:34.752Z,10.68
2019-01-18T14:09:03.067Z,12.93
2019-01-18T14:11:31.336Z,8.50
2019-01-18T14:13:59.572Z,16.97
2019-01-18T14:16:30.621Z,12.82
2019-01-18T14:18:58.854Z,13.88
2019-01-18T14:21:27.093Z,10.18
2019-01-18T14:23:55.346Z,12.45
2019-01-18T14:26:23.582Z,12.85
2019-01-18T14:28:51.833Z,12.98
2019-01-18T14:31:20.096Z,13.15
2019-01-18T14:33:48.355Z,11.18
2019-01-18T14:36:16.587Z,9.90
2019-01-18T14:38:44.837Z,12.45
2019-01-18T14:41:15.773Z,10.38
2019-01-18T14:43:43.064Z,13.70
2019-01-18T14:46:11.312Z,12.98
2019-01-18T14:48:39.541Z,8.03
2019-01-18T14:51:09.358Z,9.63
2019-01-18T14:53:40.152Z,12.90
2019-01-18T14:56:08.394Z,7.37
2019-01-18T14:58:36.641Z,11.53
2019-01-18T15:01:04.909Z,11.30
2019-01-18T15:03:33.233Z,8.35
2019-01-18T15:06:01.491Z,9.80
2019-01-18T15:08:29.741Z,8.83
2019-01-18T15:10:58.013Z,8.63
2019-01-18T15:13:26.234Z,11.10
2019-01-18T15:15:54.552Z,7.78
2019-01-18T15:18:22.793Z,9.03
2019-01-18T15:20:51.070Z,8.58
2019-01-18T15:23:19.307Z,10.90
2019-01-18T15:25:47.575Z,10.55
2019-01-18T15:28:15.847Z,11.45
2019-01-18T15:30:44.081Z,9.80
2019-01-18T15:33:12.368Z,11.80
2019-01-18T15:35:40.607Z,8.00
2019-01-18T15:38:08.923Z,13.35
2019-01-18T15:40:40.403Z,13.30
2019-01-18T15:43:08.722Z,11.18
2019-01-18T15:45:36.978Z,8.75
2019-01-18T15:48:05.231Z,9.50
2019-01-18T15:50:36.303Z,10.60
2019-01-18T15:53:04.912Z,9.48
2019-01-18T15:55:33.147Z,10.40
2019-01-18T15:58:01.387Z,8.35
2019-01-18T16:00:34.762Z,13.28
2019-01-18T16:03:02.990Z,12.40
2019-01-18T16:05:31.246Z,11.83
2019-01-18T16:07:59.479Z,8.50
2019-01-18T16:10:27.753Z,11.63
2019-01-18T16:12:56.138Z,11.93
2019-01-18T16:15:35.931Z,11.18
2019-01-18T16:18:07.281Z,12.20
2019-01-18T16:20:35.513Z,14.35
2019-01-18T16:23:03.849Z,15.53
2019-01-18T16:25:32.161Z,12.20
2019-01-18T16:28:00.406Z,12.10
2019-01-18T16:30:28.679Z,12.03
2019-01-18T16:32:57.609Z,14.85
2019-01-18T16:35:25.927Z,12.88
2019-01-18T16:37:54.166Z,16.82
2019-01-18T16:40:28.162Z,13.62
2019-01-18T16:42:59.792Z,17.67
2019-01-18T16:45:28.071Z,12.95
2019-01-18T16:47:56.393Z,18.80
2019-01-18T16:50:24.660Z,17.62
2019-01-18T16:52:52.906Z,16.62
2019-01-18T16:55:21.145Z,15.45
2019-01-18T16:57:49.476Z,12.80
2019-01-18T17:00:24.086Z,17.65
2019-01-18T17:02:52.326Z,11.45
2019-01-18T17:05:20.569Z,16.67
2019-01-18T17:07:48.814Z,12.20
2019-01-18T17:10:20.008Z,16.97
2019-01-18T17:12:48.272Z,12.30
2019-01-18T17:15:16.576Z,15.65
2019-01-18T17:17:44.844Z,12.20
2019-01-18T17:20:24.682Z,12.63
2019-01-18T17:22:52.945Z,13.48
2019-01-18T17:25:21.242Z,15.63
2019-01-18T17:27:49.497Z,19.82
2019-01-18T17:30:21.776Z,27.22
2019-01-18T17:32:51.333Z,19.87
2019-01-18T17:35:38.242Z,16.67
2019-01-18T17:40:45.007Z,22.45
2019-01-18T17:43:31.397Z,20.80
2019-01-18T17:46:11.771Z,21.15
2019-01-18T17:48:48.988Z,16.48
2019-01-18T17:51:20.489Z,20.52
2019-01-18T17:53:54.591Z,24.50
2019-01-18T17:56:44.348Z,23.45
2019-01-18T17:59:35.584Z,27.50
2019-01-18T18:02:38.905Z,26.17
2019-01-18T18:05:28.234Z,25.62
2019-01-18T18:08:24.175Z,25.12
2019-01-18T18:11:13.549Z,22.58
2019-01-18T18:13:51.278Z,18.10
2019-01-18T18:16:25.744Z,19.52
2019-01-18T18:19:03.198Z,26.55
2019-01-18T18:21:52.946Z,21.95
2019-01-18T18:24:27.171Z,25.45
2019-01-18T18:27:24.273Z,24.37
2019-01-18T18:32:54.598Z,23.00
2019-01-18T18:35:51.820Z,24.60
2019-01-18T18:38:54.307Z,22.55
2019-01-18T18:41:34.783Z,29.82
2019-01-18T18:44:06.320Z,29.12
2019-01-18T18:46:54.270Z,26.10
2019-01-18T18:49:25.801Z,25.60
2019-01-18T18:52:14.079Z,29.18
2019-01-18T18:54:48.218Z,23.25
2019-01-18T18:57:34.857Z,28.80
2019-01-18T19:00:22.697Z,23.55
2019-01-18T19:03:15.495Z,24.52
2019-01-18T19:06:01.350Z,24.40
2019-01-18T19:08:35.769Z,22.05
2019-01-18T19:11:27.035Z,24.02
2019-01-18T19:14:19.601Z,31.35
2019-01-18T19:16:59.901Z,22.62
2019-01-18T19:20:04.717Z,22.10
2019-01-18T19:22:36.235Z,17.65
2019-01-18T19:25:07.736Z,21.60
2019-01-18T19:28:00.278Z,18.45
2019-01-18T19:30:52.970Z,20.23
2019-01-18T19:33:44.378Z,21.50
2019-01-18T19:36:31.664Z,22.93
2019-01-18T19:39:12.153Z,22.15
2019-01-18T19:42:04.991Z,21.97
2019-01-18T19:44:42.396Z,24.63
2019-01-18T19:47:16.745Z,22.58
2019-01-18T19:49:51.368Z,21.70
2019-01-18T19:52:41.025Z,29.60
2019-01-18T19:55:16.051Z,24.57
2019-01-18T19:58:13.459Z,25.75
2019-01-18T20:00:56.960Z,28.75
2019-01-18T20:03:31.145Z,24.45
2019-01-18T20:06:23.557Z,25.23
2019-01-18T20:09:11.887Z,38.35
2019-01-18T20:11:43.440Z,28.23
2019-01-18T20:14:24.032Z,24.00
2019-01-18T20:16:55.608Z,22.82
2019-01-18T20:19:32.548Z,22.40
2019-01-18T20:22:04.069Z,20.80
2019-01-18T20:25:00.187Z,23.18
2019-01-18T20:27:40.318Z,19.95
2019-01-18T20:30:38.819Z,20.27
2019-01-18T20:33:22.569Z,20.32
2019-01-18T20:36:00.158Z,20.35
2019-01-18T20:38:46.721Z,18.45
2019-01-18T20:44:22.104Z,20.20
2019-01-18T20:46:59.437Z,17.48
2019-01-18T20:49:39.575Z,22.30
2019-01-18T20:52:16.700Z,20.97
2019-01-18T20:54:53.917Z,19.57
2019-01-18T20:57:46.833Z,21.27
2019-01-18T21:00:47.254Z,24.45
2019-01-18T21:03:27.357Z,24.02
2019-01-18T21:06:04.496Z,24.70
2019-01-18T21:08:52.325Z,22.10
2019-01-18T21:11:23.832Z,23.47
2019-01-18T21:13:58.542Z,26.12
2019-01-18T21:16:40.751Z,29.23
2019-01-18T21:19:20.941Z,16.97
2019-01-18T21:22:15.298Z,25.30
2019-01-18T21:24:55.277Z,23.25
2019-01-18T21:27:29.566Z,28.32
2019-01-18T21:30:24.923Z,25.48
2019-01-18T21:32:56.432Z,25.08
2019-01-18T21:35:36.868Z,17.17
2019-01-18T21:38:28.009Z,16.60
2019-01-18T21:41:08.161Z,24.27
2019-01-18T21:43:48.672Z,18.77
2019-01-18T21:46:22.922Z,22.82
2019-01-18T21:49:03.301Z,21.60
2019-01-18T21:51:56.089Z,26.15
2019-01-18T21:54:39.299Z,22.80
2019-01-18T21:57:41.216Z,23.40
2019-01-18T22:00:32.468Z,23.15
2019-01-18T22:03:10.037Z,19.73
2019-01-18T22:05:56.451Z,20.23
2019-01-18T22:08:45.707Z,18.90
2019-01-18T22:11:22.713Z,31.77
2019-01-18T22:13:54.259Z,20.02
2019-01-18T22:16:48.731Z,19.32
2019-01-18T22:19:32.151Z,19.52
2019-01-18T22:22:12.106Z,20.32
2019-01-18T22:25:03.500Z,19.95
2019-01-18T22:27:37.766Z,18.57
2019-01-18T22:30:21.398Z,21.80
2019-01-18T22:32:52.925Z,20.92
2019-01-18T22:35:27.459Z,19.60
2019-01-18T22:37:59.001Z,23.70
2019-01-18T22:40:47.326Z,24.43
2019-01-18T22:43:43.046Z,21.23
2019-01-18T22:46:31.014Z,21.37
2019-01-18T22:49:11.161Z,20.92
2019-01-18T22:51:45.378Z,25.35
2019-01-18T22:54:19.426Z,25.72
2019-01-18T22:56:59.836Z,24.12
2019-01-18T22:59:50.844Z,21.68
2019-01-18T23:02:22.338Z,20.80
2019-01-18T23:05:12.111Z,28.23
2019-01-18T23:07:49.330Z,24.32
2019-01-18T23:10:46.482Z,27.40
2019-01-18T23:13:26.886Z,23.45
2019-01-18T23:16:13.576Z,25.85
2019-01-18T23:18:53.825Z,25.05
2019-01-18T23:21:34.410Z,26.07
2019-01-18T23:24:08.923Z,26.52
2019-01-18T23:26:46.511Z,25.75
2019-01-18T23:29:29.637Z,27.20
2019-01-18T23:32:15.469Z,27.15
2019-01-18T23:34:46.973Z,23.65
2019-01-18T23:37:35.181Z,27.98
2019-01-18T23:40:26.206Z,21.27
2019-01-18T23:43:00.538Z,20.88
2019-01-18T23:45:48.437Z,25.88
2019-01-18T23:48:26.215Z,28.40
2019-01-18T23:51:06.763Z,30.92
2019-01-18T23:53:50.396Z,27.48
2019-01-18T23:56:30.175Z,23.80
2019-01-18T23:59:23.210Z,25.15
